createdAt,value
2022-08-06T00:01:01.198Z,13.82
2022-08-06T00:06:02.943Z,13.77
2022-08-06T00:11:04.672Z,13.74
2022-08-06T00:16:30.717Z,13.78
2022-08-06T00:21:41.822Z,13.70
2022-08-06T00:26:51.701Z,13.61
2022-08-06T00:32:06.292Z,13.65
2022-08-06T00:37:18.788Z,13.59
2022-08-06T00:42:21.102Z,13.48
2022-08-06T00:47:41.297Z,13.42
2022-08-06T00:52:47.019Z,13.41
2022-08-06T00:57:49.470Z,13.33
2022-08-06T01:02:53.048Z,13.32
2022-08-06T01:07:55.565Z,13.17
2022-08-06T01:12:57.244Z,13.08
2022-08-06T01:18:05.493Z,13.07
2022-08-06T01:23:19.351Z,12.99
2022-08-06T01:28:28.752Z,12.99
2022-08-06T01:33:46.666Z,12.94
2022-08-06T01:38:59.354Z,12.87
2022-08-06T01:44:06.531Z,12.72
2022-08-06T01:49:26.435Z,12.63
2022-08-06T01:54:31.295Z,12.62
2022-08-06T01:59:34.646Z,12.53
2022-08-06T02:04:40.066Z,12.51
2022-08-06T02:09:42.861Z,12.54
2022-08-06T02:14:56.608Z,12.46
2022-08-06T02:20:11.443Z,12.47
2022-08-06T02:25:22.246Z,12.44
2022-08-06T02:30:35.316Z,12.50
2022-08-06T02:36:20.674Z,12.45
2022-08-06T02:41:32.081Z,12.44
2022-08-06T02:47:03.394Z,12.35
2022-08-06T02:52:11.833Z,12.38
2022-08-06T02:57:48.465Z,12.37
2022-08-06T03:02:56.193Z,12.48
2022-08-06T03:07:57.971Z,12.50
2022-08-06T03:12:59.670Z,12.42
2022-08-06T03:18:05.737Z,12.28
2022-08-06T03:23:09.928Z,12.17
2022-08-06T03:28:12.560Z,12.05
2022-08-06T03:33:42.033Z,11.96
2022-08-06T03:39:02.397Z,11.81
2022-08-06T03:44:05.173Z,11.77
2022-08-06T03:49:10.007Z,11.71
2022-08-06T03:54:15.146Z,11.66
2022-08-06T03:59:38.024Z,11.64
2022-08-06T04:04:51.245Z,11.61
2022-08-06T04:09:59.257Z,11.61
2022-08-06T04:15:07.666Z,11.58
2022-08-06T04:20:12.785Z,11.59
2022-08-06T04:25:14.533Z,11.52
2022-08-06T04:30:16.225Z,11.61
2022-08-06T04:36:05.100Z,11.66
2022-08-06T04:40:41.485Z,11.70
2022-08-06T04:46:18.346Z,11.76
2022-08-06T04:52:36.194Z,11.77
2022-08-06T04:56:48.435Z,11.82
2022-08-06T05:01:57.119Z,11.80
2022-08-06T05:07:19.538Z,11.82
2022-08-06T05:12:33.532Z,11.92
2022-08-06T05:17:38.261Z,11.97
2022-08-06T05:22:54.189Z,12.08
2022-08-06T05:28:09.588Z,12.03
2022-08-06T05:33:16.928Z,12.27
2022-08-06T05:38:21.155Z,12.36
2022-08-06T05:43:58.224Z,12.38
2022-08-06T05:49:57.890Z,12.58
2022-08-06T05:54:52.760Z,12.62
2022-08-06T06:00:01.214Z,12.78
2022-08-06T06:06:03.313Z,12.99
2022-08-06T06:10:26.321Z,13.11
2022-08-06T06:16:01.891Z,13.23
2022-08-06T06:21:03.394Z,13.42
2022-08-06T06:26:37.342Z,13.67
2022-08-06T06:32:07.597Z,13.81
2022-08-06T06:37:40.601Z,13.94
2022-08-06T06:42:57.084Z,14.12
2022-08-06T06:48:18.327Z,14.26
2022-08-06T06:53:20.233Z,14.49
2022-08-06T06:58:47.354Z,14.70
2022-08-06T07:03:49.851Z,14.69
2022-08-06T07:08:52.207Z,14.92
2022-08-06T07:13:58.874Z,15.10
2022-08-06T07:19:01.453Z,15.10
2022-08-06T07:24:33.423Z,15.15
2022-08-06T07:29:49.366Z,15.18
2022-08-06T07:34:47.030Z,15.22
2022-08-06T07:39:48.887Z,15.32
2022-08-06T07:44:56.790Z,15.31
2022-08-06T07:50:00.323Z,15.33
2022-08-06T07:55:03.176Z,15.47
2022-08-06T08:00:06.516Z,15.61
2022-08-06T08:05:39.576Z,15.61
2022-08-06T08:10:43.049Z,15.75
2022-08-06T08:15:46.087Z,15.82
2022-08-06T08:20:53.278Z,15.81
2022-08-06T08:25:59.679Z,15.93
2022-08-06T08:31:11.023Z,16.17
2022-08-06T08:36:30.699Z,16.39
2022-08-06T08:41:48.408Z,16.52
2022-08-06T08:46:57.354Z,16.69
2022-08-06T08:51:59.845Z,16.53
2022-08-06T08:58:36.220Z,16.51
2022-08-06T09:02:28.060Z,16.64
2022-08-06T09:07:35.454Z,16.79
2022-08-06T09:12:44.882Z,16.88
2022-08-06T09:18:11.200Z,16.96
2022-08-06T09:23:12.123Z,17.12
2022-08-06T09:28:42.749Z,17.17
2022-08-06T09:34:19.200Z,17.21
2022-08-06T09:39:59.891Z,17.46
2022-08-06T09:45:15.144Z,17.62
2022-08-06T09:50:38.141Z,17.66
2022-08-06T09:55:41.462Z,17.75
2022-08-06T10:00:46.401Z,17.99
2022-08-06T10:06:06.448Z,18.14
2022-08-06T10:11:12.763Z,18.16
2022-08-06T10:16:18.973Z,18.06
2022-08-06T10:21:26.783Z,18.05
2022-08-06T10:26:33.355Z,18.10
2022-08-06T10:31:36.697Z,18.33
2022-08-06T10:36:50.505Z,18.45
2022-08-06T10:42:01.273Z,18.61
2022-08-06T10:47:05.684Z,18.80
2022-08-06T10:52:08.281Z,18.93
2022-08-06T10:57:13.331Z,19.05
2022-08-06T11:02:34.010Z,19.14
2022-08-06T11:08:09.491Z,19.52
2022-08-06T11:13:37.510Z,19.81
2022-08-06T11:19:02.793Z,19.97
2022-08-06T11:24:09.643Z,20.08
2022-08-06T11:29:12.654Z,20.34
2022-08-06T11:34:34.460Z,20.84
2022-08-06T11:40:14.244Z,20.82
2022-08-06T11:46:19.942Z,20.45
2022-08-06T11:50:39.012Z,19.86
2022-08-06T11:56:05.707Z,19.83
2022-08-06T12:01:33.656Z,19.84
2022-08-06T12:06:33.426Z,20.34
2022-08-06T12:11:37.219Z,21.39
2022-08-06T12:16:44.698Z,21.62
2022-08-06T12:21:56.743Z,22.19
2022-08-06T12:26:59.325Z,23.24
2022-08-06T12:32:01.609Z,24.00
2022-08-06T12:37:03.600Z,24.08
2022-08-06T12:42:05.298Z,24.39
2022-08-06T12:47:13.675Z,24.69
2022-08-06T12:52:20.007Z,24.87
2022-08-06T12:57:59.369Z,24.77
2022-08-06T13:02:54.114Z,25.08
2022-08-06T13:07:57.721Z,24.15
2022-08-06T13:14:15.372Z,24.44
2022-08-06T13:18:40.909Z,25.00
2022-08-06T13:23:53.319Z,25.48
2022-08-06T13:30:31.465Z,25.46
2022-08-06T13:34:30.161Z,24.23
2022-08-06T13:39:32.149Z,23.88
2022-08-06T13:44:44.912Z,24.65
2022-08-06T13:50:00.623Z,25.52
2022-08-06T13:55:07.328Z,25.66
2022-08-06T14:00:11.487Z,25.38
2022-08-06T14:05:23.051Z,26.45
2022-08-06T14:10:29.650Z,26.96
2022-08-06T14:15:42.148Z,27.54
2022-08-06T14:20:44.209Z,27.65
2022-08-06T14:26:00.012Z,27.66
2022-08-06T14:31:08.573Z,28.11
2022-08-06T14:36:10.551Z,29.04
2022-08-06T14:41:51.397Z,28.78
2022-08-06T14:46:52.881Z,27.74
2022-08-06T14:52:19.741Z,26.92
2022-08-06T14:57:16.695Z,28.05
2022-08-06T15:02:18.640Z,27.02
2022-08-06T15:07:35.581Z,27.74
2022-08-06T15:12:51.137Z,26.47
2022-08-06T15:18:14.225Z,26.31
2022-08-06T15:23:23.633Z,25.38
2022-08-06T15:28:33.048Z,25.47
2022-08-06T15:33:34.946Z,24.99
2022-08-06T15:38:38.766Z,25.09
2022-08-06T15:43:44.290Z,25.01
2022-08-06T15:48:47.119Z,25.42
2022-08-06T15:53:58.097Z,25.24
2022-08-06T15:59:01.099Z,25.81
2022-08-06T16:04:02.981Z,26.69
2022-08-06T16:09:06.242Z,27.12
2022-08-06T16:14:11.981Z,27.10
2022-08-06T16:19:20.920Z,27.54
2022-08-06T16:24:23.679Z,28.10
2022-08-06T16:29:28.170Z,27.19
2022-08-06T16:34:36.844Z,26.23
2022-08-06T16:39:38.917Z,26.41
2022-08-06T16:45:02.668Z,26.06
2022-08-06T16:50:19.123Z,25.88
2022-08-06T16:55:34.011Z,25.65
2022-08-06T17:01:00.636Z,25.38
2022-08-06T17:06:00.249Z,25.69
2022-08-06T17:11:02.989Z,25.79
2022-08-06T17:16:29.517Z,25.70
2022-08-06T17:21:58.333Z,25.47
2022-08-06T17:26:53.478Z,24.83
2022-08-06T17:31:59.020Z,24.57
2022-08-06T17:37:03.837Z,24.08
2022-08-06T17:42:26.439Z,24.25
2022-08-06T17:47:51.039Z,23.97
2022-08-06T17:52:50.386Z,23.81
2022-08-06T17:58:33.199Z,23.85
2022-08-06T18:03:14.198Z,23.75
2022-08-06T18:08:36.315Z,23.44
2022-08-06T18:13:52.933Z,23.01
2022-08-06T18:18:56.147Z,23.12
2022-08-06T18:24:00.588Z,23.06
2022-08-06T18:29:06.496Z,22.88
2022-08-06T18:34:16.185Z,22.71
2022-08-06T18:39:23.044Z,22.37
2022-08-06T18:44:27.306Z,22.15
2022-08-06T18:49:38.908Z,22.03
2022-08-06T18:54:56.577Z,21.83
2022-08-06T18:59:59.822Z,21.59
2022-08-06T19:05:01.609Z,21.36
2022-08-06T19:10:04.335Z,21.14
2022-08-06T19:15:19.664Z,20.95
2022-08-06T19:20:30.742Z,20.64
2022-08-06T19:25:41.806Z,20.39
2022-08-06T19:30:54.602Z,20.14
2022-08-06T19:36:11.818Z,19.98
2022-08-06T19:41:19.632Z,19.76
2022-08-06T19:46:56.372Z,19.44
2022-08-06T19:52:04.749Z,19.19
2022-08-06T19:57:09.283Z,18.99
2022-08-06T20:02:16.126Z,18.81
2022-08-06T20:07:24.758Z,18.58
2022-08-06T20:12:32.025Z,18.38
2022-08-06T20:17:49.506Z,18.24
2022-08-06T20:22:52.304Z,18.05
2022-08-06T20:29:07.898Z,17.84
2022-08-06T20:33:23.828Z,17.71
2022-08-06T20:38:40.231Z,17.66
2022-08-06T20:44:06.878Z,17.57
2022-08-06T20:49:10.246Z,17.40
2022-08-06T20:54:17.073Z,17.28
2022-08-06T20:59:19.351Z,17.17
2022-08-06T21:05:15.563Z,17.11
2022-08-06T21:09:45.266Z,17.09
2022-08-06T21:14:47.948Z,16.84
2022-08-06T21:20:09.552Z,16.70
2022-08-06T21:25:14.801Z,16.51
2022-08-06T21:30:29.497Z,16.31
2022-08-06T21:35:34.278Z,16.28
2022-08-06T21:40:36.915Z,16.30
2022-08-06T21:45:58.409Z,16.19
2022-08-06T21:51:00.826Z,16.08
2022-08-06T21:56:37.980Z,16.02
2022-08-06T22:01:24.986Z,15.97
2022-08-06T22:06:47.329Z,15.93
2022-08-06T22:12:37.371Z,15.84
2022-08-06T22:17:59.027Z,15.79
2022-08-06T22:22:39.090Z,15.78
2022-08-06T22:27:42.105Z,15.94
2022-08-06T22:32:56.173Z,16.03
2022-08-06T22:38:19.416Z,16.04
2022-08-06T22:43:28.003Z,16.02
2022-08-06T22:48:43.805Z,15.92
2022-08-06T22:54:28.689Z,15.77
2022-08-06T22:59:31.790Z,15.59
2022-08-06T23:04:33.830Z,15.26
2022-08-06T23:09:35.888Z,15.07
2022-08-06T23:14:38.943Z,14.87
2022-08-06T23:19:56.308Z,14.73
2022-08-06T23:25:59.362Z,14.60
2022-08-06T23:30:21.999Z,14.53
2022-08-06T23:35:35.830Z,14.69
2022-08-06T23:40:38.828Z,14.85
2022-08-06T23:45:41.505Z,14.78
2022-08-06T23:50:53.280Z,14.54
2022-08-06T23:55:59.848Z,14.67
